ADDS METAR Data INFO
IDs: Format: Raw Decoded Include TAF

Data at: 1354 UTC 17 Dec 2017

KMLJ 171335Z AUTO 00000KT 10SM CLR 02/02 A3028 RMK AO2
KMLJ 171315Z AUTO 00000KT 4SM BR CLR 02/02 A3028 RMK AO2
KMLJ 171255Z AUTO 00000KT 2 1/2SM BR CLR 01/01 A3028 RMK AO2
KMLJ 171240Z AUTO 00000KT 3SM BR SCT001 01/01 A3028 RMK AO2
KMLJ 171215Z AUTO 00000KT 1 1/4SM BR OVC001 01/01 A3027 RMK AO2
KMLJ 171155Z AUTO 00000KT 1/2SM FG OVC001 01/01 A3026 RMK AO2
KMLJ 171135Z AUTO 00000KT 1/4SM FG OVC001 01/01 A3026 RMK AO2
KMLJ 171115Z AUTO 00000KT 1/2SM FG OVC001 01/01 A3025 RMK AO2
KMLJ 171055Z AUTO 00000KT M1/4SM FG OVC001 01/01 A3025 RMK AO2
KMLJ 171035Z AUTO 00000KT 1/4SM FG OVC001 01/01 A3025 RMK AO2 LTG DSNT SW
KMLJ 171015Z AUTO 00000KT 1/4SM FG OVC001 02/02 A3026 RMK AO2
KMLJ 170955Z AUTO 00000KT 1/4SM FG OVC001 02/02 A3025 RMK AO2
KMLJ 170935Z AUTO 00000KT 1/4SM FG OVC001 02/02 A3026 RMK AO2
KMLJ 170915Z AUTO 00000KT 1/4SM FG OVC001 01/01 A3027 RMK AO2
KMLJ 170855Z AUTO 00000KT 1/4SM FG OVC001 01/01 A3027 RMK AO2
KMLJ 170835Z AUTO 00000KT 1/2SM FG OVC001 01/01 A3027 RMK AO2
KMLJ 170815Z AUTO 00000KT 1/2SM FG OVC001 01/01 A3027 RMK AO2
KMLJ 170755Z AUTO 00000KT 1/2SM FG OVC001 00/00 A3027 RMK AO2
KMLJ 170735Z AUTO 00000KT M1/4SM FG OVC001 01/01 A3027 RMK AO2
KMLJ 170715Z AUTO 00000KT 3/4SM BR OVC001 01/01 A3028 RMK AO2
KMLJ 170655Z AUTO 00000KT 3/4SM BR OVC001 01/01 A3028 RMK AO2
KMLJ 170635Z AUTO 00000KT 1 1/4SM BR OVC001 00/00 A3028 RMK AO2
KMLJ 170615Z AUTO 00000KT 7SM CLR 01/00 A3029 RMK AO2
KMLJ 170555Z AUTO 00000KT 10SM CLR 01/00 A3028 RMK AO2
KMLJ 170535Z AUTO 00000KT 10SM CLR 01/00 A3030 RMK AO2
KMLJ 170515Z AUTO 00000KT 10SM CLR 01/00 A3030 RMK AO2
KMLJ 170455Z AUTO 00000KT 10SM CLR 01/00 A3030 RMK AO2
KMLJ 170435Z AUTO 00000KT 10SM CLR 01/00 A3031 RMK AO2
KMLJ 170415Z AUTO 00000KT 10SM CLR 01/00 A3030 RMK AO2
KMLJ 170355Z AUTO 00000KT 10SM CLR 01/00 A3031 RMK AO2
KMLJ 170335Z AUTO 00000KT 10SM CLR 01/00 A3030 RMK AO2
KMLJ 170315Z AUTO 00000KT 10SM CLR 02/00 A3030 RMK AO2
KMLJ 170255Z AUTO 00000KT 10SM CLR 01/00 A3030 RMK AO2
KMLJ 170235Z AUTO 00000KT 10SM CLR 02/00 A3030 RMK AO2
KMLJ 170215Z AUTO 00000KT 10SM CLR 02/01 A3029 RMK AO2
KMLJ 170155Z AUTO 00000KT 10SM CLR 02/01 A3029 RMK AO2
KMLJ 170135Z AUTO 00000KT 10SM CLR 03/00 A3029 RMK AO2
KMLJ 170115Z AUTO 00000KT 10SM CLR 03/00 A3028 RMK AO2
KMLJ 170055Z AUTO 00000KT 10SM CLR 03/00 A3028 RMK AO2
KMLJ 170035Z AUTO 00000KT 10SM CLR 04/01 A3028 RMK AO2
KMLJ 170015Z AUTO 00000KT 10SM CLR 04/01 A3028 RMK AO2
KMLJ 162355Z AUTO 00000KT 10SM CLR 05/01 A3027 RMK AO2
KMLJ 162335Z AUTO 00000KT 10SM CLR 06/01 A3027 RMK AO2
KMLJ 162315Z AUTO 00000KT 10SM CLR 06/01 A3027 RMK AO2
KMLJ 162255Z AUTO 00000KT 10SM CLR 07/01 A3025 RMK AO2
KMLJ 162235Z AUTO 00000KT 10SM CLR 08/01 A3025 RMK AO2
KMLJ 162215Z AUTO 00000KT 10SM CLR 09/01 A3025 RMK AO2
KMLJ 162155Z AUTO 00000KT 10SM CLR 10/00 A3025 RMK AO2
KMLJ 162135Z AUTO 10003KT 10SM CLR 11/00 A3024 RMK AO2
KMLJ 162115Z AUTO 00000KT 10SM CLR 12/M01 A3024 RMK AO2
KMLJ 162055Z AUTO 00000KT 10SM CLR 12/M01 A3025 RMK AO2
KMLJ 162035Z AUTO 07003KT 10SM CLR 12/M01 A3024 RMK AO2
KMLJ 162015Z AUTO 00000KT 10SM CLR 11/M01 A3025 RMK AO2
KMLJ 161955Z AUTO 05004KT 10SM CLR 12/M01 A3025 RMK AO2
KMLJ 161935Z AUTO 00000KT 10SM CLR 12/M01 A3026 RMK AO2
KMLJ 161915Z AUTO 08004KT 10SM CLR 11/M01 A3026 RMK AO2
KMLJ 161855Z AUTO 08003KT 10SM CLR 11/M01 A3027 RMK AO2
KMLJ 161835Z AUTO 06003KT 10SM CLR 10/M01 A3028 RMK AO2
KMLJ 161815Z AUTO 00000KT 10SM CLR 10/M01 A3028 RMK AO2
KMLJ 161755Z AUTO 25003KT 10SM CLR 09/M01 A3028 RMK AO2
KMLJ 161735Z AUTO 00000KT 10SM CLR 08/M02 A3029 RMK AO2
KMLJ 161715Z AUTO 29003KT 10SM CLR 07/M02 A3030 RMK AO2
KMLJ 161655Z AUTO 31005KT 10SM CLR 07/M02 A3031 RMK AO2
KMLJ 161635Z AUTO 02003KT 10SM CLR 07/M02 A3032 RMK AO2
KMLJ 161615Z AUTO 32004KT 10SM CLR 06/M01 A3033 RMK AO2
KMLJ 161555Z AUTO 30005KT 10SM CLR 05/M01 A3033 RMK AO2
KMLJ 161535Z AUTO 00000KT 10SM CLR 05/M01 A3034 RMK AO2
KMLJ 161515Z AUTO 03003KT 10SM CLR 05/M01 A3033 RMK AO2
KMLJ 161455Z AUTO 35003KT 10SM CLR 03/M01 A3033 RMK AO2
KMLJ 161435Z AUTO 36003KT 10SM CLR 03/M01 A3033 RMK AO2
KMLJ 161415Z AUTO 00000KT 10SM CLR 02/M01 A3031 RMK AO2
KMLJ 161355Z AUTO 32003KT 10SM CLR 01/M01 A3030 RMK AO2
KMLJ 161335Z AUTO 34003KT 10SM CLR 00/M01 A3030 RMK AO2
KMLJ 161315Z AUTO 34003KT 10SM CLR M01/M02 A3030 RMK AO2
KMLJ 161255Z AUTO 00000KT 7SM CLR M01/M02 A3029 RMK AO2
KMLJ 161235Z AUTO 00000KT 10SM CLR M01/M02 A3028 RMK AO2
KMLJ 161215Z AUTO 00000KT 10SM CLR M01/M02 A3027 RMK AO2
KMLJ 161155Z AUTO 00000KT 10SM CLR M01/M02 A3027 RMK AO2
KMLJ 161135Z AUTO 00000KT 10SM CLR M01/M02 A3026 RMK AO2
KMLJ 161115Z AUTO 00000KT 10SM CLR 00/M02 A3025 RMK AO2
KMLJ 161055Z AUTO 30004KT 10SM CLR 00/M02 A3024 RMK AO2
KMLJ 161035Z AUTO 32003KT 10SM CLR 00/M02 A3024 RMK AO2
KMLJ 161015Z AUTO 32003KT 10SM CLR 00/M02 A3023 RMK AO2
KMLJ 160955Z AUTO 31007KT 10SM CLR M01/M02 A3024 RMK AO2
KMLJ 160935Z AUTO 29004KT 10SM CLR 00/M02 A3024 RMK AO2
KMLJ 160915Z AUTO 00000KT 10SM CLR 00/M02 A3023 RMK AO2
KMLJ 160855Z AUTO 29004KT 10SM CLR 00/M02 A3023 RMK AO2
KMLJ 160835Z AUTO 31005KT 10SM CLR 01/M02 A3023 RMK AO2
KMLJ 160815Z AUTO 32006KT 10SM CLR 01/M02 A3023 RMK AO2
KMLJ 160755Z AUTO 31006KT 10SM CLR 01/M02 A3022 RMK AO2
KMLJ 160735Z AUTO 31007KT 10SM CLR 01/M02 A3022 RMK AO2
KMLJ 160715Z AUTO 30005KT 10SM CLR 01/M02 A3022 RMK AO2
KMLJ 160655Z AUTO 30006KT 10SM CLR 01/M02 A3021 RMK AO2
KMLJ 160635Z AUTO 30006KT 10SM CLR 01/M02 A3021 RMK AO2
KMLJ 160615Z AUTO 31006KT 10SM CLR 01/M02 A3022 RMK AO2
KMLJ 160555Z AUTO 31007KT 10SM CLR 01/M02 A3021 RMK AO2
KMLJ 160535Z AUTO 31006KT 10SM CLR 01/M02 A3021 RMK AO2
KMLJ 160515Z AUTO 30005KT 10SM CLR 01/M02 A3022 RMK AO2
KMLJ 160455Z AUTO 31005KT 10SM CLR 01/M02 A3022 RMK AO2
KMLJ 160435Z AUTO 31005KT 10SM CLR 01/M02 A3021 RMK AO2
KMLJ 160415Z AUTO 31004KT 10SM CLR 03/M02 A3022 RMK AO2
KMLJ 160355Z AUTO 30006KT 10SM CLR 02/M02 A3022 RMK AO2
KMLJ 160335Z AUTO 31006KT 10SM CLR 03/M02 A3021 RMK AO2
KMLJ 160315Z AUTO 32006KT 10SM CLR 04/M02 A3020 RMK AO2
KMLJ 160255Z AUTO 31007KT 10SM CLR 05/M02 A3019 RMK AO2
KMLJ 160235Z AUTO 32007KT 10SM CLR 05/M02 A3018 RMK AO2
KMLJ 160215Z AUTO 32005KT 10SM CLR 05/M02 A3018 RMK AO2
KMLJ 160155Z AUTO 31006KT 10SM CLR 05/M02 A3018 RMK AO2